Time;durP1;ratioP1;P1;durP2;ratioP2;P2;SDS_P1;SDS_P2;PMS_P1;PMS_P2;Temp;Humidity;BMP_temperature;BMP_pressure;BME280_temperature;BME280_humidity;BME280_pressure;Samples;Min_cycle;Max_cycle;Signal;HPM_P1;HPM_P2
2023/12/18 00:00:37;;;;;;;8.25;3.20;;;5.80;99.90;;;;;;4999535;28;19914;-65
2023/12/18 00:03:03;;;;;;;8.48;3.35;;;5.80;99.90;;;;;;4994419;28;20446;-65
2023/12/18 00:05:28;;;;;;;8.15;3.47;;;5.90;99.90;;;;;;4990820;28;20046;-65
2023/12/18 00:07:54;;;;;;;12.15;3.50;;;5.80;99.90;;;;;;4993832;28;20434;-65
2023/12/18 00:10:20;;;;;;;11.87;3.40;;;5.80;99.90;;;;;;4974847;28;20261;-65
2023/12/18 00:12:45;;;;;;;7.57;3.00;;;5.70;99.90;;;;;;4989660;28;20711;-65
2023/12/18 00:15:11;;;;;;;8.00;3.20;;;5.60;99.90;;;;;;4991903;28;19980;-65
2023/12/18 00:17:37;;;;;;;7.10;2.80;;;5.60;99.90;;;;;;4981336;28;19914;-65
2023/12/18 00:20:03;;;;;;;8.55;3.03;;;5.60;99.90;;;;;;4991101;28;20042;-65
2023/12/18 00:22:28;;;;;;;9.40;3.03;;;5.60;99.90;;;;;;4992206;28;20366;-65
2023/12/18 00:24:54;;;;;;;7.93;2.83;;;5.70;99.90;;;;;;4993622;28;20034;-65
2023/12/18 00:27:20;;;;;;;8.68;2.58;;;5.80;99.90;;;;;;4983840;28;20522;-65
2023/12/18 00:29:45;;;;;;;8.43;2.80;;;6.00;99.90;;;;;;4988626;28;20133;-65
2023/12/18 00:32:11;;;;;;;8.82;2.70;;;6.10;99.90;;;;;;4983414;28;20227;-65
2023/12/18 00:34:40;;;;;;;7.03;2.28;;;6.00;99.90;;;;;;4994647;28;20129;-65
2023/12/18 00:37:06;;;;;;;8.55;2.60;;;5.90;99.90;;;;;;4996081;28;20041;-65
2023/12/18 00:39:32;;;;;;;9.60;2.45;;;5.90;99.90;;;;;;4977737;28;20034;-65
2023/12/18 00:41:57;;;;;;;7.75;2.70;;;5.90;99.90;;;;;;4989914;28;20011;-65
2023/12/18 00:44:23;;;;;;;8.70;2.67;;;5.90;99.90;;;;;;4992561;28;20053;-65
2023/12/18 00:46:49;;;;;;;6.72;2.13;;;6.00;99.90;;;;;;4996520;28;20619;-65
2023/12/18 00:49:15;;;;;;;8.77;3.20;;;6.10;99.90;;;;;;4993211;28;19920;-65
2023/12/18 00:51:40;;;;;;;10.10;3.25;;;6.00;99.90;;;;;;4986925;28;20396;-65
2023/12/18 00:54:06;;;;;;;9.57;2.47;;;5.80;99.90;;;;;;4981175;28;20127;-65
2023/12/18 00:56:32;;;;;;;7.13;2.20;;;5.70;99.90;;;;;;4991633;28;20035;-65
2023/12/18 00:58:57;;;;;;;9.65;3.25;;;5.60;99.90;;;;;;4992311;28;19957;-65
2023/12/18 01:01:23;;;;;;;6.87;2.57;;;5.80;99.90;;;;;;4995106;28;20501;-65
2023/12/18 01:03:49;;;;;;;10.18;3.40;;;5.80;99.90;;;;;;4991318;28;19960;-65
2023/12/18 01:06:14;;;;;;;9.10;3.20;;;5.70;99.90;;;;;;4993303;28;19917;-65
2023/12/18 01:08:40;;;;;;;7.70;2.90;;;5.80;99.90;;;;;;4994653;28;19917;-65
2023/12/18 01:11:05;;;;;;;12.90;3.40;;;5.80;99.90;;;;;;4991316;28;20273;-65
2023/12/18 01:13:31;;;;;;;;;;;5.90;99.90;;;;;;4993178;28;19910;-65
2023/12/18 01:15:58;;;;;;;;;;;5.80;99.90;;;;;;4992733;28;20303;-65
2023/12/18 01:18:24;;;;;;;16.20;2.60;;;5.80;99.90;;;;;;4994296;28;20041;-65
2023/12/18 01:20:50;;;;;;;8.80;3.20;;;5.80;99.90;;;;;;4993330;28;20026;-65
2023/12/18 01:23:20;;;;;;;10.80;3.50;;;5.80;99.90;;;;;;4991857;28;20528;-65
2023/12/18 01:25:46;;;;;;;8.85;2.85;;;5.80;99.90;;;;;;4993907;28;20227;-65
2023/12/18 01:28:12;;;;;;;8.80;3.20;;;5.80;99.90;;;;;;4975959;28;20057;-67
2023/12/18 01:30:45;;;;;;;8.45;3.17;;;5.90;99.90;;;;;;4993986;28;20034;-68
2023/12/18 01:33:10;;;;;;;9.73;3.37;;;5.90;99.90;;;;;;4989572;28;19913;-65
2023/12/18 01:35:36;;;;;;;9.15;3.15;;;5.90;99.90;;;;;;4984660;28;20557;-65
2023/12/18 01:38:04;;;;;;;9.07;3.33;;;5.80;99.90;;;;;;4993498;28;19955;-65
2023/12/18 01:40:29;;;;;;;8.27;3.08;;;5.80;99.90;;;;;;4991205;28;20026;-65
2023/12/18 01:42:55;;;;;;;9.30;2.90;;;5.70;99.90;;;;;;4981146;28;20030;-65
2023/12/18 01:45:20;;;;;;;;;;;5.70;99.90;;;;;;5003381;28;19932;-65
2023/12/18 01:47:46;;;;;;;;;;;5.70;99.90;;;;;;4993949;28;20511;-65
2023/12/18 01:50:12;;;;;;;;;;;5.60;99.90;;;;;;4995287;28;24095;-65
2023/12/18 01:52:38;;;;;;;;;;;5.60;99.90;;;;;;4996493;28;20553;-65
2023/12/18 01:55:06;;;;;;;11.20;3.00;;;5.60;99.90;;;;;;4994119;28;19950;-65
2023/12/18 01:57:33;;;;;;;11.00;3.40;;;5.50;99.90;;;;;;4987713;28;20084;-65
2023/12/18 01:59:58;;;;;;;;;;;5.50;99.90;;;;;;4992163;28;20028;-65
2023/12/18 02:02:24;;;;;;;;;;;5.40;99.90;;;;;;4998775;28;20008;-65
2023/12/18 02:04:50;;;;;;;;;;;5.30;99.90;;;;;;5015096;28;25097;-65
2023/12/18 02:07:18;;;;;;;;;;;5.20;99.90;;;;;;5016342;28;20782;-65
2023/12/18 02:09:44;;;;;;;;;;;5.10;99.90;;;;;;5016803;28;20026;-65
2023/12/18 02:12:09;;;;;;;;;;;5.10;99.90;;;;;;5016210;28;20021;-66
2023/12/18 02:14:35;;;;;;;;;;;5.20;99.90;;;;;;5014221;28;19950;-66
2023/12/18 02:17:03;;;;;;;;;;;5.20;99.90;;;;;;5013532;28;20855;-66
2023/12/18 02:19:29;;;;;;;;;;;5.10;99.90;;;;;;5015485;28;20057;-66
2023/12/18 02:21:55;;;;;;;13.25;3.85;;;5.10;99.90;;;;;;5016775;28;20327;-66
2023/12/18 02:24:23;;;;;;;;;;;5.10;99.90;;;;;;5016321;28;20393;-66
2023/12/18 02:26:49;;;;;;;;;;;5.00;99.90;;;;;;5014021;28;20053;-66
2023/12/18 02:29:15;;;;;;;;;;;4.90;99.90;;;;;;5011715;28;20046;-66
2023/12/18 02:31:42;;;;;;;;;;;4.90;99.90;;;;;;5019570;28;20255;-66
2023/12/18 02:34:08;;;;;;;;;;;4.80;99.90;;;;;;5011831;28;20322;-66
2023/12/18 02:36:33;;;;;;;13.73;4.50;;;4.80;99.90;;;;;;5017655;28;19932;-66
2023/12/18 02:38:59;;;;;;;13.57;4.40;;;4.80;99.90;;;;;;5020175;28;20044;-66
2023/12/18 02:41:24;;;;;;;11.20;4.15;;;4.80;99.90;;;;;;4991060;28;20030;-66
2023/12/18 02:43:50;;;;;;;11.55;3.92;;;4.80;99.90;;;;;;5019318;28;20044;-66
2023/12/18 02:46:16;;;;;;;12.82;4.18;;;4.80;99.90;;;;;;5000340;28;20033;-66
2023/12/18 02:48:41;;;;;;;10.75;4.38;;;4.80;99.90;;;;;;5019199;28;20024;-66
2023/12/18 02:51:07;;;;;;;14.25;3.58;;;4.70;99.90;;;;;;5018597;28;20040;-68
2023/12/18 02:53:33;;;;;;;10.50;3.97;;;4.80;99.90;;;;;;5019474;28;20030;-68
2023/12/18 02:55:58;;;;;;;16.20;4.90;;;4.90;99.90;;;;;;5016675;28;20627;-68
2023/12/18 02:58:24;;;;;;;12.85;4.85;;;5.00;99.90;;;;;;4998830;28;20017;-68
2023/12/18 03:00:50;;;;;;;10.25;3.88;;;4.90;99.90;;;;;;5017373;28;20026;-66
2023/12/18 03:03:16;;;;;;;13.75;4.70;;;4.80;99.90;;;;;;5015443;28;20044;-66
2023/12/18 03:05:42;;;;;;;14.43;5.10;;;4.80;99.90;;;;;;5018697;28;20384;-66
2023/12/18 03:08:08;;;;;;;10.60;4.03;;;4.70;99.90;;;;;;4999921;28;20029;-68
2023/12/18 03:10:33;;;;;;;13.63;4.88;;;4.70;99.90;;;;;;4999959;28;20029;-68
2023/12/18 03:12:59;;;;;;;13.23;5.22;;;4.60;99.90;;;;;;5016188;28;20022;-66
2023/12/18 03:15:24;;;;;;;14.70;5.50;;;4.50;99.90;;;;;;5017716;28;20065;-65
2023/12/18 03:17:50;;;;;;;17.40;4.30;;;4.40;99.90;;;;;;4998903;28;20022;-65
2023/12/18 03:20:16;;;;;;;14.98;5.70;;;4.30;99.90;;;;;;5016306;28;20068;-65
2023/12/18 03:22:41;;;;;;;16.38;5.28;;;4.40;99.90;;;;;;5013379;28;20022;-67
2023/12/18 03:25:07;;;;;;;10.85;3.72;;;4.40;99.90;;;;;;4998030;28;20045;-65
2023/12/18 03:27:33;;;;;;;13.88;5.50;;;4.40;99.90;;;;;;5014826;28;20519;-65
2023/12/18 03:29:59;;;;;;;13.52;4.63;;;4.40;99.90;;;;;;5013027;28;20030;-65
2023/12/18 03:32:25;;;;;;;15.90;5.38;;;4.30;99.90;;;;;;4994751;28;20456;-65
2023/12/18 03:34:50;;;;;;;15.48;6.05;;;4.20;99.90;;;;;;5014309;28;20456;-65
2023/12/18 03:37:16;;;;;;;15.88;6.28;;;4.20;99.90;;;;;;5014975;28;20014;-65
2023/12/18 03:39:44;;;;;;;17.38;6.07;;;4.20;99.90;;;;;;5016470;28;20445;-65
2023/12/18 03:42:09;;;;;;;14.65;5.78;;;4.10;99.90;;;;;;5014331;28;20018;-65
2023/12/18 03:44:35;;;;;;;14.63;5.78;;;4.10;99.90;;;;;;5017236;28;20028;-65
2023/12/18 03:47:02;;;;;;;17.20;6.40;;;4.00;99.90;;;;;;5018220;28;20032;-65
2023/12/18 03:49:28;;;;;;;17.27;6.10;;;4.00;99.90;;;;;;5017415;28;20503;-65
2023/12/18 03:51:53;;;;;;;21.27;6.78;;;3.90;99.90;;;;;;5018540;28;20021;-65
2023/12/18 03:54:19;;;;;;;16.63;6.35;;;3.90;99.90;;;;;;5013097;28;20030;-65
2023/12/18 03:56:45;;;;;;;18.67;6.47;;;3.80;99.90;;;;;;5016811;28;20029;-65
2023/12/18 03:59:10;;;;;;;19.25;6.75;;;3.80;99.90;;;;;;5015231;28;20025;-65
2023/12/18 04:01:36;;;;;;;16.95;6.45;;;3.70;99.90;;;;;;5018508;28;20018;-65
2023/12/18 04:04:03;;;;;;;20.90;6.55;;;3.60;99.90;;;;;;5017181;28;20018;-65
2023/12/18 04:06:28;;;;;;;;;;;3.50;99.90;;;;;;4998939;28;20374;-65
2023/12/18 04:08:54;;;;;;;;;;;3.50;99.90;;;;;;5018063;28;20051;-65
2023/12/18 04:11:21;;;;;;;;;;;3.60;99.90;;;;;;5015538;28;19910;-65
2023/12/18 04:13:50;;;;;;;17.55;5.95;;;3.50;99.90;;;;;;5017647;28;19931;-67
2023/12/18 04:16:15;;;;;;;21.88;7.22;;;3.50;99.90;;;;;;5014988;28;20056;-67
2023/12/18 04:18:41;;;;;;;18.85;6.32;;;3.60;99.90;;;;;;5015495;28;20068;-65
2023/12/18 04:21:07;;;;;;;14.63;5.60;;;3.50;99.90;;;;;;4998531;28;20510;-65
2023/12/18 04:23:34;;;;;;;15.02;6.07;;;3.50;99.90;;;;;;5016475;28;20026;-65
2023/12/18 04:26:00;;;;;;;17.27;6.60;;;3.50;99.90;;;;;;5016551;28;20036;-66
2023/12/18 04:28:25;;;;;;;18.48;7.07;;;3.40;99.90;;;;;;4994461;28;20038;-66
2023/12/18 04:30:51;;;;;;;20.67;7.55;;;3.30;99.90;;;;;;5015785;28;20040;-66
2023/12/18 04:33:17;;;;;;;16.50;6.13;;;3.20;99.90;;;;;;4996755;28;20139;-66
2023/12/18 04:35:42;;;;;;;18.08;7.18;;;3.10;99.90;;;;;;5013558;28;20064;-66
2023/12/18 04:38:08;;;;;;;17.85;5.65;;;3.10;99.90;;;;;;4997291;28;20018;-66
2023/12/18 04:40:33;;;;;;;16.17;6.70;;;3.20;99.90;;;;;;5013576;28;20037;-66
2023/12/18 04:42:59;;;;;;;18.48;7.05;;;3.20;99.90;;;;;;5015387;28;20079;-66
2023/12/18 04:45:25;;;;;;;19.73;6.82;;;3.10;99.90;;;;;;5013205;28;20418;-66
2023/12/18 04:47:50;;;;;;;12.18;5.82;;;3.00;99.90;;;;;;5014381;28;20431;-66
2023/12/18 04:50:16;;;;;;;20.45;7.82;;;3.10;99.90;;;;;;5013792;28;20108;-66
2023/12/18 04:52:42;;;;;;;19.40;6.93;;;3.20;99.90;;;;;;4995433;28;20053;-66
2023/12/18 04:55:08;;;;;;;17.63;6.90;;;3.20;99.90;;;;;;4999819;28;20033;-66
2023/12/18 04:57:35;;;;;;;16.90;7.13;;;3.20;99.90;;;;;;5015636;28;20507;-66
2023/12/18 05:00:01;;;;;;;20.33;7.03;;;3.20;99.90;;;;;;5000255;28;20049;-68
2023/12/18 05:02:27;;;;;;;18.70;7.15;;;3.40;99.90;;;;;;5014714;28;20512;-66
2023/12/18 05:04:52;;;;;;;15.15;6.10;;;3.40;99.90;;;;;;5019787;28;20026;-66
2023/12/18 05:07:18;;;;;;;19.08;6.80;;;3.40;99.90;;;;;;5020354;28;20495;-67
2023/12/18 05:09:44;;;;;;;26.27;6.75;;;3.40;99.90;;;;;;4999963;28;20044;-68
2023/12/18 05:12:09;;;;;;;18.38;8.18;;;3.50;99.90;;;;;;5019405;28;20030;-68
2023/12/18 05:14:35;;;;;;;17.63;7.45;;;3.60;99.90;;;;;;5018566;28;20507;-66
2023/12/18 05:17:01;;;;;;;19.15;6.50;;;3.60;99.90;;;;;;5015307;28;20097;-66
2023/12/18 05:19:26;;;;;;;20.88;7.38;;;3.70;99.90;;;;;;5019323;28;20045;-66
2023/12/18 05:21:52;;;;;;;17.60;6.75;;;3.70;99.90;;;;;;5017518;28;20034;-66
2023/12/18 05:24:17;;;;;;;21.23;7.03;;;3.70;99.90;;;;;;5019184;28;20539;-66
2023/12/18 05:26:43;;;;;;;22.20;8.23;;;3.70;99.90;;;;;;5015801;28;20038;-66
2023/12/18 05:29:08;;;;;;;19.27;7.00;;;3.70;99.90;;;;;;5014120;28;20554;-66
2023/12/18 05:31:36;;;;;;;17.63;6.72;;;3.70;99.90;;;;;;5007259;28;20060;-66
2023/12/18 05:34:02;;;;;;;17.05;7.35;;;3.70;99.90;;;;;;4997807;28;20478;-66
2023/12/18 05:36:28;;;;;;;19.45;8.05;;;3.80;99.90;;;;;;5018179;28;20041;-67
2023/12/18 05:38:53;;;;;;;20.20;7.22;;;3.80;99.90;;;;;;5016802;28;20310;-66
2023/12/18 05:41:19;;;;;;;21.90;7.65;;;3.70;99.90;;;;;;5016552;28;20489;-67
2023/12/18 05:43:45;;;;;;;17.80;5.93;;;3.70;99.90;;;;;;5003035;28;20109;-68
2023/12/18 05:46:12;;;;;;;19.98;7.70;;;3.80;99.90;;;;;;5005174;28;20029;-67
2023/12/18 05:48:38;;;;;;;20.80;8.07;;;3.80;99.90;;;;;;4983779;28;20048;-67
2023/12/18 05:51:04;;;;;;;22.80;8.80;;;3.80;99.90;;;;;;5007107;28;20226;-67
2023/12/18 05:53:29;;;;;;;23.95;8.23;;;3.90;99.90;;;;;;5009135;28;20036;-67
2023/12/18 05:55:55;;;;;;;18.80;7.53;;;3.80;99.90;;;;;;4984785;28;20490;-67
2023/12/18 05:58:20;;;;;;;14.90;6.78;;;3.80;99.90;;;;;;5001208;28;20029;-67
2023/12/18 06:00:46;;;;;;;17.00;5.82;;;3.80;99.90;;;;;;5003354;28;20025;-67
2023/12/18 06:03:12;;;;;;;17.33;6.20;;;3.90;99.90;;;;;;4987002;28;20026;-67
2023/12/18 06:05:38;;;;;;;19.50;8.48;;;;;;;;;;5008366;28;20046;-67
2023/12/18 06:08:03;;;;;;;17.98;7.38;;;3.90;99.90;;;;;;5010691;28;20032;-67
2023/12/18 06:10:29;;;;;;;19.88;7.82;;;3.90;99.90;;;;;;4996151;28;20484;-67
2023/12/18 06:12:55;;;;;;;24.48;8.52;;;3.90;99.90;;;;;;5016533;28;20047;-67
2023/12/18 06:15:20;;;;;;;17.73;7.30;;;3.90;99.90;;;;;;5011879;28;20136;-67
2023/12/18 06:17:46;;;;;;;22.60;7.80;;;3.90;99.90;;;;;;5014933;28;20214;-67
2023/12/18 06:20:14;;;;;;;19.17;8.13;;;3.90;99.90;;;;;;5007979;28;20026;-67
2023/12/18 06:22:41;;;;;;;18.98;8.15;;;3.90;99.90;;;;;;4994497;28;20029;-67
2023/12/18 06:25:10;;;;;;;20.38;8.45;;;3.90;99.90;;;;;;4993151;28;20025;-67
2023/12/18 06:27:36;;;;;;;20.63;8.15;;;3.80;99.90;;;;;;5013353;28;20682;-67
2023/12/18 06:30:02;;;;;;;19.13;8.20;;;3.80;99.90;;;;;;4993473;28;20113;-66
2023/12/18 06:32:27;;;;;;;20.25;7.90;;;3.70;99.90;;;;;;4996394;28;20592;-67
2023/12/18 06:34:53;;;;;;;19.13;7.93;;;3.60;99.90;;;;;;5000007;28;20034;-66
2023/12/18 06:37:18;;;;;;;23.40;8.85;;;3.60;99.90;;;;;;5007240;28;20444;-66
2023/12/18 06:39:48;;;;;;;23.52;8.70;;;3.60;99.90;;;;;;4984340;28;20080;-67
2023/12/18 06:42:14;;;;;;;20.13;8.43;;;3.60;99.90;;;;;;4982833;28;20112;-67
2023/12/18 06:44:41;;;;;;;22.98;8.50;;;3.60;99.90;;;;;;5002282;28;20109;-66
2023/12/18 06:47:07;;;;;;;19.33;8.15;;;3.60;99.90;;;;;;4998475;28;20037;-65
2023/12/18 06:49:32;;;;;;;21.10;7.22;;;3.50;99.90;;;;;;4973901;28;20371;-65
2023/12/18 06:51:58;;;;;;;25.98;9.20;;;3.40;99.90;;;;;;4994580;28;20026;-65
2023/12/18 06:54:26;;;;;;;22.33;9.13;;;3.30;99.90;;;;;;4989322;28;20027;-65
2023/12/18 06:56:52;;;;;;;25.00;8.98;;;3.30;99.90;;;;;;4997977;28;20042;-65
2023/12/18 06:59:17;;;;;;;21.77;8.15;;;3.30;99.90;;;;;;4999902;28;20030;-65
2023/12/18 07:01:43;;;;;;;24.38;9.15;;;3.30;99.90;;;;;;4983585;28;20027;-65
2023/12/18 07:04:09;;;;;;;24.75;8.90;;;3.30;99.90;;;;;;4997959;28;20604;-66
2023/12/18 07:06:34;;;;;;;21.15;9.07;;;3.20;99.90;;;;;;4994345;28;20038;-65
2023/12/18 07:09:00;;;;;;;24.02;9.40;;;3.20;99.90;;;;;;4978360;28;20030;-65
2023/12/18 07:11:25;;;;;;;23.55;9.02;;;3.20;99.90;;;;;;4994996;28;20062;-65
2023/12/18 07:13:52;;;;;;;21.40;9.32;;;3.20;99.90;;;;;;4994889;28;20508;-66
2023/12/18 07:16:23;;;;;;;20.98;8.48;;;3.20;99.90;;;;;;5000828;28;20058;-66
2023/12/18 07:18:49;;;;;;;24.15;9.43;;;3.20;99.90;;;;;;4970001;28;20046;-66
2023/12/18 07:21:17;;;;;;;27.42;9.10;;;3.30;99.90;;;;;;4976270;28;20398;-66
2023/12/18 07:23:43;;;;;;;37.17;10.05;;;3.40;99.90;;;;;;4993077;28;20433;-66
2023/12/18 07:26:12;;;;;;;22.58;8.88;;;3.40;99.90;;;;;;5000919;28;20105;-64
2023/12/18 07:28:40;;;;;;;25.00;9.57;;;3.50;99.90;;;;;;4981243;28;20350;-66
2023/12/18 07:31:07;;;;;;;25.50;10.10;;;3.60;99.90;;;;;;4995359;28;20038;-66
2023/12/18 07:33:32;;;;;;;28.00;10.60;;;3.60;99.90;;;;;;4995070;28;20101;-66
2023/12/18 07:35:58;;;;;;;24.67;9.85;;;3.60;99.90;;;;;;5001389;28;20122;-65
2023/12/18 07:38:26;;;;;;;33.35;13.48;;;3.70;99.90;;;;;;4983182;28;20018;-65
2023/12/18 07:40:52;;;;;;;30.17;11.02;;;3.80;99.90;;;;;;4981166;28;20026;-65
2023/12/18 07:43:17;;;;;;;22.92;9.13;;;3.80;99.90;;;;;;5000413;28;20034;-66
2023/12/18 07:45:45;;;;;;;25.65;10.07;;;3.80;99.90;;;;;;4986991;28;20041;-64
2023/12/18 07:48:11;;;;;;;23.70;9.77;;;3.90;99.90;;;;;;4984365;28;20117;-64
2023/12/18 07:50:37;;;;;;;20.90;9.23;;;3.90;99.90;;;;;;4999806;28;20984;-64
2023/12/18 07:53:03;;;;;;;24.73;10.13;;;4.00;99.90;;;;;;4994576;28;20104;-63
2023/12/18 07:55:36;;;;;;;25.75;8.85;;;4.00;99.90;;;;;;4998151;28;20121;-65
2023/12/18 07:58:01;;;;;;;30.58;10.20;;;4.00;99.90;;;;;;5002828;28;20065;-66
2023/12/18 08:00:27;;;;;;;24.52;10.10;;;4.20;99.90;;;;;;5000339;28;20361;-67
2023/12/18 08:02:53;;;;;;;23.48;9.60;;;4.20;99.90;;;;;;5001335;28;20038;-73
2023/12/18 08:05:18;;;;;;;23.80;9.88;;;4.40;99.90;;;;;;5001677;28;20037;-66
2023/12/18 08:07:44;;;;;;;25.55;10.20;;;4.30;99.90;;;;;;5004385;28;20083;-68
2023/12/18 08:10:10;;;;;;;28.52;10.73;;;4.30;99.90;;;;;;5000395;28;20084;-67
2023/12/18 08:12:35;;;;;;;15.38;6.15;;;4.30;99.90;;;;;;5002435;28;20033;-66
2023/12/18 08:15:02;;;;;;;32.80;11.32;;;4.30;99.90;;;;;;4984374;28;20061;-66
2023/12/18 08:17:27;;;;;;;24.08;7.97;;;4.30;99.90;;;;;;5001295;28;20093;-66
2023/12/18 08:19:53;;;;;;;27.55;11.43;;;4.40;99.90;;;;;;4999318;28;20069;-67
2023/12/18 08:22:19;;;;;;;27.95;11.90;;;4.50;99.90;;;;;;4994126;28;20057;-66
2023/12/18 08:24:44;;;;;;;25.95;11.43;;;4.40;99.90;;;;;;4977835;28;20027;-66
2023/12/18 08:27:10;;;;;;;25.77;10.90;;;4.40;99.90;;;;;;5002654;28;20389;-66
2023/12/18 08:29:39;;;;;;;30.05;11.38;;;4.50;99.90;;;;;;5000585;28;20026;-67
2023/12/18 08:32:05;;;;;;;30.65;11.13;;;4.50;99.90;;;;;;5000064;28;20072;-69
2023/12/18 08:34:33;;;;;;;29.40;11.32;;;4.50;99.90;;;;;;5003362;28;20121;-68
2023/12/18 08:36:58;;;;;;;24.77;10.07;;;4.40;99.90;;;;;;4997382;28;20034;-68
2023/12/18 08:39:24;;;;;;;26.20;10.02;;;4.40;99.90;;;;;;4995590;28;20018;-68
2023/12/18 08:41:51;;;;;;;23.80;10.18;;;4.50;99.90;;;;;;5002230;28;20030;-69
2023/12/18 08:44:18;;;;;;;21.38;8.75;;;4.50;99.90;;;;;;4998144;28;20474;-66
2023/12/18 08:46:43;;;;;;;24.77;10.30;;;4.60;99.90;;;;;;5004739;28;20450;-66
2023/12/18 08:49:09;;;;;;;28.67;10.77;;;4.60;99.90;;;;;;4979712;28;20036;-66
2023/12/18 08:51:34;;;;;;;22.02;10.52;;;4.70;99.90;;;;;;4998315;28;20652;-66
2023/12/18 08:54:04;;;;;;;17.42;7.47;;;4.50;99.90;;;;;;4995512;28;20504;-67
2023/12/18 08:56:33;;;;;;;23.60;10.52;;;4.60;99.90;;;;;;4983462;28;20038;-66
2023/12/18 08:58:59;;;;;;;26.65;11.25;;;4.60;99.90;;;;;;4980985;28;20516;-67
2023/12/18 09:01:24;;;;;;;27.85;10.70;;;4.60;99.90;;;;;;4999300;28;20119;-66
2023/12/18 09:03:51;;;;;;;24.90;8.50;;;4.60;99.90;;;;;;4994403;28;20490;-66
2023/12/18 09:06:16;;;;;;;24.45;10.05;;;4.70;99.90;;;;;;4995469;28;20108;-64
2023/12/18 09:08:42;;;;;;;27.60;11.57;;;4.80;99.90;;;;;;4994051;28;20164;-65
2023/12/18 09:11:09;;;;;;;27.55;13.43;;;4.80;99.90;;;;;;4992762;28;20038;-65
2023/12/18 09:13:36;;;;;;;30.00;10.68;;;4.80;99.90;;;;;;4995908;28;20386;-65
2023/12/18 09:16:03;;;;;;;30.98;10.77;;;4.80;99.90;;;;;;4995803;28;20037;-64
2023/12/18 09:18:29;;;;;;;24.95;10.60;;;4.80;99.90;;;;;;4992624;28;20046;-65
2023/12/18 09:20:54;;;;;;;25.58;10.82;;;4.80;99.90;;;;;;4991766;28;20512;-64
2023/12/18 09:23:20;;;;;;;23.27;10.00;;;4.90;99.90;;;;;;4991638;28;20034;-65
2023/12/18 09:25:47;;;;;;;22.40;9.50;;;4.90;99.90;;;;;;4994789;28;20038;-65
2023/12/18 09:28:13;;;;;;;21.45;9.25;;;5.00;99.90;;;;;;4999646;28;20030;-65
2023/12/18 09:30:40;;;;;;;24.00;9.38;;;5.00;99.90;;;;;;4993455;28;20053;-64
2023/12/18 09:33:06;;;;;;;23.52;9.02;;;5.00;99.90;;;;;;4978119;28;20374;-65
2023/12/18 09:35:32;;;;;;;22.52;10.15;;;5.10;99.90;;;;;;4993297;28;20061;-64
2023/12/18 09:37:58;;;;;;;21.13;9.23;;;5.10;99.90;;;;;;4976451;28;20108;-66
2023/12/18 09:40:24;;;;;;;17.63;7.97;;;5.10;99.90;;;;;;4991752;28;20489;-65
2023/12/18 09:42:54;;;;;;;22.58;9.20;;;5.10;99.90;;;;;;4994983;28;20350;-64
2023/12/18 09:45:23;;;;;;;23.20;9.27;;;5.10;99.90;;;;;;4997308;28;20030;-64
2023/12/18 09:47:53;;;;;;;18.47;7.30;;;5.10;99.90;;;;;;4989265;28;20485;-65
2023/12/18 09:50:19;;;;;;;23.27;8.85;;;5.10;99.90;;;;;;4995889;28;20018;-64
2023/12/18 09:53:03;;;;;;;23.65;9.20;;;5.20;99.90;;;;;;4990878;28;20038;-66
2023/12/18 09:55:31;;;;;;;23.10;8.55;;;5.20;99.90;;;;;;4991510;28;20038;-65
2023/12/18 09:57:59;;;;;;;18.13;8.30;;;5.30;99.90;;;;;;4995922;28;20102;-65
2023/12/18 10:00:26;;;;;;;22.27;9.18;;;5.40;99.90;;;;;;4988396;28;20031;-65
2023/12/18 10:02:54;;;;;;;17.95;7.25;;;5.40;99.90;;;;;;4998673;28;20418;-65
2023/12/18 10:05:19;;;;;;;17.80;7.38;;;5.50;99.90;;;;;;4997397;28;20038;-65
2023/12/18 10:07:45;;;;;;;20.00;6.68;;;5.50;99.90;;;;;;4978040;28;20117;-65
2023/12/18 10:10:11;;;;;;;17.95;7.65;;;5.60;99.90;;;;;;4997194;28;20497;-65
2023/12/18 10:12:38;;;;;;;19.35;6.90;;;5.70;99.90;;;;;;4997856;28;20113;-66
2023/12/18 10:15:09;;;;;;;14.23;6.40;;;5.60;99.90;;;;;;4999372;28;20352;-65
2023/12/18 10:17:34;;;;;;;;;;;5.60;99.90;;;;;;4999205;28;20018;-68
2023/12/18 10:20:04;;;;;;;17.15;7.05;;;5.60;99.90;;;;;;4988625;28;19919;-70
2023/12/18 10:22:31;;;;;;;17.55;6.85;;;5.60;99.90;;;;;;5002109;28;20038;-70
2023/12/18 10:24:58;;;;;;;20.15;8.15;;;5.50;99.90;;;;;;4997051;28;20031;-70
2023/12/18 10:27:24;;;;;;;21.80;8.15;;;5.40;99.90;;;;;;4992834;28;20034;-72
2023/12/18 10:29:50;;;;;;;18.48;7.50;;;5.40;99.90;;;;;;4992847;28;20072;-71
2023/12/18 10:32:17;;;;;;;17.40;6.85;;;5.40;99.90;;;;;;4995465;28;20023;-68
2023/12/18 10:34:43;;;;;;;15.40;5.85;;;5.30;99.90;;;;;;4994425;28;20041;-69
2023/12/18 10:37:11;;;;;;;17.15;7.60;;;5.40;99.90;;;;;;4994534;28;20038;-68
2023/12/18 10:39:41;;;;;;;15.75;6.63;;;5.40;99.90;;;;;;4981102;28;20125;-69
2023/12/18 10:42:24;;;;;;;14.57;5.03;;;5.40;99.90;;;;;;4994346;28;20433;-70
2023/12/18 10:44:53;;;;;;;15.55;6.90;;;5.40;99.90;;;;;;4983786;28;20034;-70
2023/12/18 10:47:20;;;;;;;16.10;5.57;;;5.40;99.90;;;;;;4999485;28;20034;-68
2023/12/18 10:49:48;;;;;;;16.35;6.93;;;5.40;99.90;;;;;;4994208;28;20035;-68
2023/12/18 10:52:15;;;;;;;14.77;6.70;;;5.40;99.90;;;;;;4992560;28;20065;-70
2023/12/18 10:54:45;;;;;;;16.42;7.50;;;5.30;99.90;;;;;;4990593;28;20053;-71
2023/12/18 10:57:12;;;;;;;15.68;6.15;;;5.30;99.90;;;;;;4996343;28;20030;-69
2023/12/18 10:59:38;;;;;;;15.40;5.65;;;5.30;99.90;;;;;;4994911;28;20092;-68
2023/12/18 11:02:07;;;;;;;12.18;5.13;;;5.30;99.90;;;;;;4989109;28;20023;-71
2023/12/18 11:04:36;;;;;;;16.27;6.30;;;5.40;99.90;;;;;;4996959;28;20034;-69
2023/12/18 11:07:02;;;;;;;13.02;6.03;;;5.40;99.90;;;;;;4997539;28;20049;-69
2023/12/18 11:09:28;;;;;;;15.23;6.20;;;5.40;99.90;;;;;;4998745;28;20084;-69
2023/12/18 11:11:54;;;;;;;14.30;6.18;;;5.50;99.90;;;;;;5000900;28;20038;-69
2023/12/18 11:15:18;;;;;;;12.60;5.22;;;5.50;99.90;;;;;;4999044;28;20084;-69
2023/12/18 11:17:52;;;;;;;16.48;5.55;;;5.50;99.90;;;;;;4956857;28;20045;-69
2023/12/18 11:20:26;;;;;;;12.95;6.03;;;5.50;99.90;;;;;;5001801;28;20065;-69
2023/12/18 11:22:56;;;;;;;14.30;5.10;;;5.50;99.90;;;;;;5001568;28;20096;-69
2023/12/18 11:25:30;;;;;;;17.40;6.28;;;5.60;99.90;;;;;;4999701;28;20180;-68
2023/12/18 11:28:00;;;;;;;16.02;6.40;;;5.60;99.90;;;;;;4986984;28;20061;-69
2023/12/18 11:30:31;;;;;;;15.15;6.85;;;5.50;99.90;;;;;;4996125;28;20402;-73
2023/12/18 11:32:58;;;;;;;14.88;6.20;;;5.50;99.90;;;;;;4987403;28;20037;-69
2023/12/18 11:35:34;;;;;;;15.13;7.00;;;5.60;99.90;;;;;;4985951;28;20038;-69
2023/12/18 11:38:06;;;;;;;16.63;6.28;;;5.60;99.90;;;;;;4997987;28;20045;-68
2023/12/18 11:40:32;;;;;;;15.32;6.63;;;5.70;99.90;;;;;;4999952;28;20152;-69
2023/12/18 11:43:00;;;;;;;13.32;6.40;;;5.70;99.90;;;;;;4999349;28;20106;-69
2023/12/18 11:45:26;;;;;;;14.48;6.05;;;5.70;99.90;;;;;;4983056;28;20350;-69
2023/12/18 11:47:57;;;;;;;15.82;6.80;;;5.80;99.90;;;;;;4980199;28;20043;-70
2023/12/18 11:50:26;;;;;;;14.63;6.68;;;5.80;99.90;;;;;;5000022;28;20080;-69
2023/12/18 11:52:55;;;;;;;15.07;6.40;;;5.80;99.90;;;;;;4986477;28;20041;-68
2023/12/18 11:55:40;;;;;;;20.03;6.27;;;5.80;99.90;;;;;;5002689;28;20030;-69
2023/12/18 11:58:07;;;;;;;18.40;5.97;;;5.80;99.90;;;;;;4984071;28;20027;-69
2023/12/18 12:00:34;;;;;;;15.70;6.32;;;5.90;99.90;;;;;;5001534;28;20503;-69
2023/12/18 12:03:04;;;;;;;11.77;4.00;;;5.90;99.90;;;;;;5004882;28;20026;-69
2023/12/18 12:05:35;;;;;;;14.57;6.03;;;5.90;99.90;;;;;;4996580;28;20038;-69
2023/12/18 12:08:01;;;;;;;16.10;5.35;;;5.90;99.90;;;;;;5000481;28;20271;-70
2023/12/18 12:10:27;;;;;;;13.43;6.00;;;5.90;99.90;;;;;;5002684;28;20157;-70
2023/12/18 12:12:57;;;;;;;13.13;5.68;;;5.90;99.90;;;;;;5002692;28;20477;-69
2023/12/18 12:15:58;;;;;;;13.38;5.63;;;5.90;99.90;;;;;;4996688;28;20540;-71
2023/12/18 12:18:35;;;;;;;15.95;5.80;;;5.90;99.90;;;;;;4981219;28;20524;-68
2023/12/18 12:21:01;;;;;;;11.13;4.70;;;5.90;99.90;;;;;;4966589;28;20178;-68
2023/12/18 12:23:28;;;;;;;13.52;5.63;;;5.90;99.90;;;;;;4981399;28;20680;-72
2023/12/18 12:26:01;;;;;;;16.27;5.78;;;5.90;99.90;;;;;;4981302;28;20050;-69
2023/12/18 12:28:31;;;;;;;17.40;5.25;;;5.90;99.90;;;;;;4978893;28;20049;-72
2023/12/18 12:30:57;;;;;;;15.00;6.90;;;5.90;99.90;;;;;;4978386;28;20530;-72
2023/12/18 12:33:37;;;;;;;14.88;5.75;;;5.90;99.90;;;;;;4966928;28;20756;-72
2023/12/18 12:36:03;;;;;;;13.90;5.85;;;5.90;99.90;;;;;;4977239;28;20039;-65
2023/12/18 12:38:29;;;;;;;14.88;5.63;;;5.90;99.90;;;;;;4980021;28;20034;-65
2023/12/18 12:40:54;;;;;;;13.63;5.18;;;6.00;99.90;;;;;;4984800;28;20034;-65
2023/12/18 12:43:20;;;;;;;13.70;5.55;;;7.20;99.90;;;;;;4979976;28;20101;-65
2023/12/18 12:45:46;;;;;;;14.38;5.22;;;6.00;99.90;;;;;;4967219;28;20078;-65
2023/12/18 12:48:12;;;;;;;11.13;4.35;;;6.00;99.90;;;;;;4981263;28;20190;-67
2023/12/18 12:50:42;;;;;;;14.18;6.05;;;6.00;99.90;;;;;;4966307;28;20082;-67
2023/12/18 12:53:09;;;;;;;;;;;6.00;99.90;;;;;;4967322;28;20092;-65